createdAt,value
2019-05-30T00:01:46.043Z,16.97
2019-05-30T00:06:52.181Z,9.70
2019-05-30T00:11:58.574Z,10.50
2019-05-30T00:17:05.196Z,10.20
2019-05-30T00:22:11.457Z,8.33
2019-05-30T00:27:17.234Z,7.22
2019-05-30T00:32:23.301Z,13.43
2019-05-30T00:37:30.800Z,6.90
2019-05-30T00:42:36.775Z,8.10
2019-05-30T00:47:43.152Z,10.45
2019-05-30T00:52:49.028Z,10.55
2019-05-30T00:57:54.982Z,10.80
2019-05-30T01:03:02.834Z,13.65
2019-05-30T01:13:13.522Z,7.33
2019-05-30T01:18:19.389Z,12.60
2019-05-30T01:23:25.256Z,12.73
2019-05-30T01:28:31.112Z,12.88
2019-05-30T01:33:36.992Z,19.85
2019-05-30T01:38:42.970Z,24.92
2019-05-30T01:43:48.824Z,16.90
2019-05-30T01:48:54.635Z,13.30
2019-05-30T01:54:00.984Z,12.33
2019-05-30T01:59:06.951Z,12.03
2019-05-30T02:04:12.927Z,11.00
2019-05-30T02:09:19.001Z,11.35
2019-05-30T02:14:25.075Z,12.45
2019-05-30T02:19:30.937Z,13.55
2019-05-30T02:24:37.471Z,17.25
2019-05-30T02:29:43.397Z,19.40
2019-05-30T02:34:49.369Z,15.10
2019-05-30T02:40:00.067Z,15.80
2019-05-30T02:45:03.724Z,19.52
2019-05-30T02:55:17.445Z,21.50
2019-05-30T03:00:36.425Z,25.70
2019-05-30T03:05:43.318Z,41.45
2019-05-30T03:10:49.211Z,27.98
2019-05-30T03:15:55.477Z,26.00
2019-05-30T03:21:03.157Z,17.80
2019-05-30T03:26:10.763Z,15.98
2019-05-30T03:36:30.602Z,17.02
2019-05-30T03:41:32.993Z,11.73
2019-05-30T03:46:52.282Z,13.78
2019-05-30T03:52:00.301Z,8.18
2019-05-30T03:57:11.405Z,12.00
2019-05-30T04:02:22.906Z,9.05
2019-05-30T04:07:31.216Z,12.68
2019-05-30T04:13:09.900Z,11.40
2019-05-30T04:18:16.657Z,9.10
2019-05-30T04:23:23.805Z,9.53
2019-05-30T04:28:29.842Z,8.75
2019-05-30T04:33:36.030Z,9.00
2019-05-30T04:38:42.397Z,9.30
2019-05-30T04:43:48.461Z,8.98
2019-05-30T04:48:55.546Z,13.55
2019-05-30T04:54:01.512Z,6.65
2019-05-30T04:59:07.700Z,7.75
2019-05-30T05:04:15.373Z,8.45
2019-05-30T05:09:22.403Z,7.62
2019-05-30T05:14:28.604Z,7.63
2019-05-30T05:19:35.682Z,6.57
2019-05-30T05:24:41.686Z,9.58
2019-05-30T05:29:48.125Z,8.18
2019-05-30T05:34:54.571Z,6.17
2019-05-30T05:40:00.682Z,13.50
2019-05-30T05:45:10.555Z,6.10
2019-05-30T05:50:16.903Z,4.70
2019-05-30T05:55:23.000Z,5.87
2019-05-30T06:00:29.545Z,17.23
2019-05-30T06:05:36.069Z,9.58
2019-05-30T06:10:42.607Z,12.43
2019-05-30T06:15:49.071Z,38.15
2019-05-30T06:20:55.486Z,6.03
2019-05-30T06:26:03.131Z,9.53
2019-05-30T06:31:09.978Z,7.95
2019-05-30T06:36:16.112Z,3.03
2019-05-30T06:41:22.167Z,8.28
2019-05-30T06:46:28.466Z,3.33
2019-05-30T06:51:34.728Z,1.62
2019-05-30T06:56:44.586Z,6.15
2019-05-30T07:01:51.839Z,2.37
2019-05-30T07:06:57.018Z,4.28
2019-05-30T07:12:03.302Z,5.45
2019-05-30T07:17:09.910Z,4.83
2019-05-30T07:22:16.241Z,5.17
2019-05-30T07:27:23.718Z,3.27
2019-05-30T07:32:30.056Z,2.45
2019-05-30T07:37:36.405Z,2.83
2019-05-30T07:42:42.479Z,6.42
2019-05-30T07:47:48.552Z,2.37
2019-05-30T07:52:54.566Z,6.95
2019-05-30T07:58:01.067Z,4.58
2019-05-30T08:03:07.317Z,4.62
2019-05-30T08:08:13.301Z,5.25
2019-05-30T08:13:19.308Z,4.47
2019-05-30T08:18:25.439Z,3.42
2019-05-30T08:23:32.070Z,3.30
2019-05-30T08:28:42.347Z,3.22
2019-05-30T08:33:47.550Z,5.45
2019-05-30T08:38:53.735Z,2.15
2019-05-30T08:44:00.017Z,5.83
2019-05-30T08:49:06.794Z,3.95
2019-05-30T08:54:13.947Z,3.42
2019-05-30T08:59:21.085Z,1.67
2019-05-30T09:04:27.174Z,1.62
2019-05-30T09:09:33.144Z,4.37
2019-05-30T09:14:39.649Z,2.98
2019-05-30T09:19:47.486Z,2.60
2019-05-30T09:24:53.819Z,3.22
2019-05-30T09:29:59.886Z,1.85
2019-05-30T09:35:08.931Z,11.73
2019-05-30T09:40:16.486Z,3.25
2019-05-30T09:45:23.248Z,2.12
2019-05-30T09:50:29.503Z,1.82
2019-05-30T09:55:36.184Z,2.58
2019-05-30T10:00:43.476Z,4.00
2019-05-30T10:05:50.597Z,1.10
2019-05-30T10:10:57.109Z,3.37
2019-05-30T10:16:03.457Z,2.47
2019-05-30T10:21:09.534Z,2.80
2019-05-30T10:26:15.938Z,3.22
2019-05-30T10:31:22.081Z,1.42
2019-05-30T10:36:43.182Z,5.12
2019-05-30T10:46:41.359Z,2.05
2019-05-30T10:51:47.849Z,2.83
2019-05-30T10:56:53.883Z,2.67
2019-05-30T11:01:59.860Z,1.30
2019-05-30T11:07:12.013Z,3.35
2019-05-30T11:12:18.360Z,3.83
2019-05-30T11:17:24.522Z,2.00
2019-05-30T11:22:30.612Z,2.65
2019-05-30T11:27:36.894Z,2.25
2019-05-30T11:32:43.190Z,1.42
2019-05-30T11:37:49.229Z,3.65
2019-05-30T11:42:55.522Z,2.52
2019-05-30T11:48:01.641Z,2.12
2019-05-30T11:53:08.212Z,2.37
2019-05-30T11:58:19.004Z,4.03
2019-05-30T12:03:22.358Z,2.02
2019-05-30T12:08:28.352Z,2.98
2019-05-30T12:13:34.568Z,2.55
2019-05-30T12:18:40.682Z,16.20
2019-05-30T12:23:46.855Z,1.57
2019-05-30T12:28:54.128Z,1.47
2019-05-30T12:34:02.526Z,2.10
2019-05-30T12:39:09.172Z,2.00
2019-05-30T12:44:15.552Z,3.50
2019-05-30T12:49:21.520Z,1.22
2019-05-30T12:54:28.518Z,2.80
2019-05-30T12:59:34.584Z,1.82
2019-05-30T13:04:40.648Z,3.42
2019-05-30T13:09:46.643Z,1.27
2019-05-30T13:14:53.017Z,1.75
2019-05-30T13:19:59.136Z,4.20
2019-05-30T13:25:08.352Z,1.98
2019-05-30T13:30:15.330Z,2.12
2019-05-30T13:35:21.838Z,3.08
2019-05-30T13:40:27.750Z,2.55
2019-05-30T13:45:34.015Z,3.83
2019-05-30T13:50:40.026Z,2.87
2019-05-30T13:55:46.152Z,4.20
2019-05-30T14:00:52.798Z,2.52
2019-05-30T14:05:59.946Z,3.27
2019-05-30T14:11:06.733Z,3.47
2019-05-30T14:16:12.868Z,2.47
2019-05-30T14:21:18.985Z,3.25
2019-05-30T14:26:25.074Z,2.37
2019-05-30T14:31:31.215Z,3.37
2019-05-30T14:36:37.561Z,4.17
2019-05-30T14:41:43.542Z,4.67
2019-05-30T14:46:49.674Z,2.60
2019-05-30T14:51:55.676Z,4.80
2019-05-30T14:57:03.164Z,3.05
2019-05-30T15:02:09.255Z,1.87
2019-05-30T15:07:15.621Z,8.08
2019-05-30T15:12:21.709Z,4.08
2019-05-30T15:17:27.686Z,5.05
2019-05-30T15:22:33.650Z,4.85
2019-05-30T15:27:39.627Z,3.02
2019-05-30T15:32:45.589Z,5.85
2019-05-30T15:37:51.462Z,4.62
2019-05-30T15:42:57.325Z,6.17
2019-05-30T15:48:03.295Z,5.25
2019-05-30T15:53:10.911Z,3.92
2019-05-30T16:03:23.970Z,7.55
2019-05-30T16:08:29.805Z,4.90
2019-05-30T16:13:35.817Z,6.65
2019-05-30T16:18:42.095Z,5.50
2019-05-30T16:23:49.839Z,7.03
2019-05-30T16:28:55.881Z,7.00
2019-05-30T16:34:10.216Z,5.42
2019-05-30T16:39:16.221Z,7.25
2019-05-30T16:44:23.928Z,6.67
2019-05-30T16:49:29.996Z,7.85
2019-05-30T16:54:35.871Z,4.00
2019-05-30T16:59:41.834Z,4.47
2019-05-30T17:04:47.706Z,8.48
2019-05-30T17:09:53.697Z,3.52
2019-05-30T17:14:59.633Z,3.35
2019-05-30T17:20:08.900Z,7.90
2019-05-30T17:25:14.973Z,24.92
2019-05-30T17:30:23.738Z,5.65
2019-05-30T17:35:29.729Z,3.25
2019-05-30T17:40:44.674Z,3.42
2019-05-30T17:45:43.259Z,7.08
2019-05-30T17:50:49.122Z,6.83
2019-05-30T17:55:54.990Z,6.95
2019-05-30T18:01:00.967Z,4.00
2019-05-30T18:06:07.065Z,11.05
2019-05-30T18:11:13.112Z,4.97
2019-05-30T18:16:19.084Z,5.83
2019-05-30T18:21:25.398Z,5.55
2019-05-30T18:26:31.899Z,6.03
2019-05-30T18:31:38.129Z,11.35
2019-05-30T18:36:44.197Z,13.35
2019-05-30T18:41:52.382Z,10.08
2019-05-30T18:47:00.250Z,6.75
2019-05-30T18:52:06.405Z,6.37
2019-05-30T18:57:12.489Z,8.00
2019-05-30T19:02:21.628Z,8.40
2019-05-30T19:07:30.916Z,27.22
2019-05-30T19:12:37.053Z,18.17
2019-05-30T19:17:43.027Z,6.78
2019-05-30T19:22:49.546Z,7.37
2019-05-30T19:27:55.509Z,10.63
2019-05-30T19:33:01.665Z,7.85
2019-05-30T19:38:07.617Z,9.03
2019-05-30T19:43:13.595Z,7.70
2019-05-30T19:48:19.465Z,6.35
2019-05-30T19:53:25.531Z,6.47
2019-05-30T19:58:31.593Z,11.43
2019-05-30T20:03:46.280Z,9.15
2019-05-30T20:08:55.062Z,5.30
2019-05-30T20:13:53.311Z,3.83
2019-05-30T20:18:59.281Z,4.53
2019-05-30T20:24:05.561Z,7.40
2019-05-30T20:29:11.482Z,5.42
2019-05-30T20:34:18.045Z,4.35
2019-05-30T20:39:24.394Z,6.72
2019-05-30T20:44:30.469Z,5.55
2019-05-30T20:49:37.114Z,8.45
2019-05-30T20:54:43.520Z,5.10
2019-05-30T20:59:49.722Z,6.62
2019-05-30T21:04:55.778Z,7.37
2019-05-30T21:10:04.008Z,23.95
2019-05-30T21:15:10.389Z,20.48
2019-05-30T21:20:17.274Z,9.00
2019-05-30T21:25:23.333Z,7.37
2019-05-30T21:30:29.323Z,9.90
2019-05-30T21:35:35.196Z,5.65
2019-05-30T21:40:42.464Z,5.00
2019-05-30T21:45:48.996Z,6.72
2019-05-30T21:50:55.034Z,7.35
2019-05-30T21:56:00.919Z,6.22
2019-05-30T22:01:23.480Z,6.50
2019-05-30T22:06:29.679Z,4.72
2019-05-30T22:11:35.727Z,8.03
2019-05-30T22:16:41.878Z,7.72
2019-05-30T22:21:48.134Z,4.12
2019-05-30T22:26:54.668Z,4.75
2019-05-30T22:32:00.531Z,5.30
2019-05-30T22:37:06.506Z,5.08
2019-05-30T22:42:12.368Z,4.15
2019-05-30T22:47:18.241Z,4.20
2019-05-30T22:52:24.208Z,8.63
2019-05-30T22:57:30.177Z,6.72
2019-05-30T23:02:36.157Z,6.50
2019-05-30T23:07:42.024Z,4.65
2019-05-30T23:12:47.885Z,5.08
2019-05-30T23:17:54.785Z,6.00
2019-05-30T23:23:00.962Z,4.20
2019-05-30T23:28:07.031Z,7.28
2019-05-30T23:33:17.689Z,8.90
2019-05-30T23:38:23.589Z,12.70
2019-05-30T23:43:30.681Z,19.77
2019-05-30T23:48:36.549Z,25.97
2019-05-30T23:53:42.422Z,21.12
2019-05-30T23:58:48.384Z,14.35
